sensor_id;sensor_type;location;lat;lon;timestamp;P1;durP1;ratioP1;P2;durP2;ratioP2
18162;SDS011;9206;50.994;4.538;2023-10-08T00:00:43;3.50;;;3.03;;
18162;SDS011;9206;50.994;4.538;2023-10-08T00:03:39;3.75;;;3.40;;
18162;SDS011;9206;50.994;4.538;2023-10-08T00:06:34;3.75;;;3.13;;
18162;SDS011;9206;50.994;4.538;2023-10-08T00:09:24;4.50;;;2.70;;
18162;SDS011;9206;50.994;4.538;2023-10-08T00:12:19;4.55;;;3.10;;
18162;SDS011;9206;50.994;4.538;2023-10-08T00:15:08;3.60;;;3.30;;
18162;SDS011;9206;50.994;4.538;2023-10-08T00:20:50;7.72;;;3.50;;
18162;SDS011;9206;50.994;4.538;2023-10-08T00:23:50;4.13;;;2.95;;
18162;SDS011;9206;50.994;4.538;2023-10-08T00:26:44;3.60;;;2.90;;
18162;SDS011;9206;50.994;4.538;2023-10-08T00:29:33;8.27;;;3.65;;
18162;SDS011;9206;50.994;4.538;2023-10-08T00:32:30;3.53;;;3.28;;
18162;SDS011;9206;50.994;4.538;2023-10-08T00:38:13;3.40;;;3.10;;
18162;SDS011;9206;50.994;4.538;2023-10-08T00:41:12;5.93;;;3.00;;
18162;SDS011;9206;50.994;4.538;2023-10-08T00:44:02;4.18;;;3.35;;
18162;SDS011;9206;50.994;4.538;2023-10-08T00:46:51;4.50;;;2.87;;
18162;SDS011;9206;50.994;4.538;2023-10-08T00:49:42;5.53;;;3.20;;
18162;SDS011;9206;50.994;4.538;2023-10-08T00:52:47;3.33;;;3.03;;
18162;SDS011;9206;50.994;4.538;2023-10-08T00:55:50;3.40;;;3.10;;
18162;SDS011;9206;50.994;4.538;2023-10-08T00:58:47;6.33;;;3.20;;
18162;SDS011;9206;50.994;4.538;2023-10-08T01:01:56;3.90;;;3.20;;
18162;SDS011;9206;50.994;4.538;2023-10-08T01:07:49;5.77;;;3.40;;
18162;SDS011;9206;50.994;4.538;2023-10-08T01:10:48;3.63;;;3.07;;
18162;SDS011;9206;50.994;4.538;2023-10-08T01:16:39;3.90;;;3.00;;
18162;SDS011;9206;50.994;4.538;2023-10-08T01:19:37;3.53;;;3.27;;
18162;SDS011;9206;50.994;4.538;2023-10-08T01:22:29;5.60;;;3.10;;
18162;SDS011;9206;50.994;4.538;2023-10-08T01:25:19;5.80;;;3.30;;
18162;SDS011;9206;50.994;4.538;2023-10-08T01:28:16;5.70;;;2.77;;
18162;SDS011;9206;50.994;4.538;2023-10-08T01:31:13;3.27;;;2.97;;
18162;SDS011;9206;50.994;4.538;2023-10-08T01:34:04;3.70;;;3.40;;
18162;SDS011;9206;50.994;4.538;2023-10-08T01:36:55;3.23;;;2.97;;
18162;SDS011;9206;50.994;4.538;2023-10-08T01:39:58;7.93;;;3.50;;
18162;SDS011;9206;50.994;4.538;2023-10-08T01:42:50;3.30;;;2.93;;
18162;SDS011;9206;50.994;4.538;2023-10-08T01:45:39;5.47;;;3.70;;
18162;SDS011;9206;50.994;4.538;2023-10-08T01:48:34;3.77;;;3.23;;
18162;SDS011;9206;50.994;4.538;2023-10-08T01:51:23;3.43;;;3.13;;
18162;SDS011;9206;50.994;4.538;2023-10-08T01:54:22;4.97;;;3.43;;
18162;SDS011;9206;50.994;4.538;2023-10-08T01:57:19;3.20;;;2.97;;
18162;SDS011;9206;50.994;4.538;2023-10-08T02:00:06;3.60;;;3.30;;
18162;SDS011;9206;50.994;4.538;2023-10-08T02:03:01;4.85;;;3.47;;
18162;SDS011;9206;50.994;4.538;2023-10-08T02:05:54;3.67;;;3.27;;
18162;SDS011;9206;50.994;4.538;2023-10-08T02:11:41;4.17;;;3.20;;
18162;SDS011;9206;50.994;4.538;2023-10-08T02:14:42;5.03;;;3.80;;
18162;SDS011;9206;50.994;4.538;2023-10-08T02:20:20;4.90;;;3.30;;
18162;SDS011;9206;50.994;4.538;2023-10-08T02:23:11;6.50;;;3.07;;
18162;SDS011;9206;50.994;4.538;2023-10-08T02:26:00;4.50;;;3.43;;
18162;SDS011;9206;50.994;4.538;2023-10-08T02:28:50;5.30;;;3.37;;
18162;SDS011;9206;50.994;4.538;2023-10-08T02:31:39;4.30;;;3.60;;
18162;SDS011;9206;50.994;4.538;2023-10-08T02:34:27;3.60;;;3.20;;
18162;SDS011;9206;50.994;4.538;2023-10-08T02:37:18;4.27;;;3.33;;
18162;SDS011;9206;50.994;4.538;2023-10-08T02:40:07;3.80;;;3.50;;
18162;SDS011;9206;50.994;4.538;2023-10-08T02:43:07;4.00;;;3.70;;
18162;SDS011;9206;50.994;4.538;2023-10-08T02:45:58;3.80;;;3.13;;
18162;SDS011;9206;50.994;4.538;2023-10-08T02:48:52;4.67;;;3.10;;
18162;SDS011;9206;50.994;4.538;2023-10-08T02:51:46;3.73;;;3.30;;
18162;SDS011;9206;50.994;4.538;2023-10-08T02:54:41;5.57;;;3.30;;
18162;SDS011;9206;50.994;4.538;2023-10-08T02:57:35;5.20;;;3.23;;
18162;SDS011;9206;50.994;4.538;2023-10-08T03:00:23;3.70;;;3.30;;
18162;SDS011;9206;50.994;4.538;2023-10-08T03:03:16;8.63;;;3.40;;
18162;SDS011;9206;50.994;4.538;2023-10-08T03:06:17;4.13;;;3.23;;
18162;SDS011;9206;50.994;4.538;2023-10-08T03:11:59;5.97;;;3.47;;
18162;SDS011;9206;50.994;4.538;2023-10-08T03:14:53;4.97;;;3.17;;
18162;SDS011;9206;50.994;4.538;2023-10-08T03:18:07;5.47;;;3.33;;
18162;SDS011;9206;50.994;4.538;2023-10-08T03:21:06;3.60;;;3.30;;
18162;SDS011;9206;50.994;4.538;2023-10-08T03:24:07;6.57;;;3.13;;
18162;SDS011;9206;50.994;4.538;2023-10-08T03:26:58;3.57;;;3.10;;
18162;SDS011;9206;50.994;4.538;2023-10-08T03:29:54;4.53;;;3.53;;
18162;SDS011;9206;50.994;4.538;2023-10-08T03:32:47;3.97;;;3.60;;
18162;SDS011;9206;50.994;4.538;2023-10-08T03:35:40;8.37;;;3.43;;
18162;SDS011;9206;50.994;4.538;2023-10-08T03:41:34;7.57;;;4.20;;
18162;SDS011;9206;50.994;4.538;2023-10-08T03:44:26;8.17;;;4.13;;
18162;SDS011;9206;50.994;4.538;2023-10-08T03:47:15;3.60;;;3.30;;
18162;SDS011;9206;50.994;4.538;2023-10-08T03:50:10;4.90;;;3.57;;
18162;SDS011;9206;50.994;4.538;2023-10-08T03:53:05;3.70;;;3.00;;
18162;SDS011;9206;50.994;4.538;2023-10-08T03:56:03;3.80;;;3.50;;
18162;SDS011;9206;50.994;4.538;2023-10-08T03:58:55;3.97;;;3.47;;
18162;SDS011;9206;50.994;4.538;2023-10-08T04:01:52;3.47;;;3.17;;
18162;SDS011;9206;50.994;4.538;2023-10-08T04:07:45;3.97;;;3.60;;
18162;SDS011;9206;50.994;4.538;2023-10-08T04:10:49;3.73;;;3.40;;
18162;SDS011;9206;50.994;4.538;2023-10-08T04:13:57;5.53;;;3.80;;
18162;SDS011;9206;50.994;4.538;2023-10-08T04:16:47;6.03;;;3.43;;
18162;SDS011;9206;50.994;4.538;2023-10-08T04:19:42;4.53;;;3.90;;
18162;SDS011;9206;50.994;4.538;2023-10-08T04:22:32;3.70;;;3.40;;
18162;SDS011;9206;50.994;4.538;2023-10-08T04:28:17;4.23;;;3.37;;
18162;SDS011;9206;50.994;4.538;2023-10-08T04:31:10;4.43;;;3.50;;
18162;SDS011;9206;50.994;4.538;2023-10-08T04:37:08;4.57;;;4.17;;
18162;SDS011;9206;50.994;4.538;2023-10-08T04:39:58;4.13;;;3.73;;
18162;SDS011;9206;50.994;4.538;2023-10-08T04:42:49;4.13;;;3.80;;
18162;SDS011;9206;50.994;4.538;2023-10-08T04:45:40;5.23;;;3.30;;
18162;SDS011;9206;50.994;4.538;2023-10-08T04:48:38;6.10;;;3.80;;
18162;SDS011;9206;50.994;4.538;2023-10-08T04:51:36;3.73;;;3.43;;
18162;SDS011;9206;50.994;4.538;2023-10-08T04:54:35;6.30;;;4.57;;
18162;SDS011;9206;50.994;4.538;2023-10-08T04:57:27;5.87;;;4.17;;
18162;SDS011;9206;50.994;4.538;2023-10-08T05:00:15;6.60;;;3.83;;
18162;SDS011;9206;50.994;4.538;2023-10-08T05:03:25;5.50;;;3.43;;
18162;SDS011;9206;50.994;4.538;2023-10-08T05:06:22;5.53;;;3.60;;
18162;SDS011;9206;50.994;4.538;2023-10-08T05:09:35;4.20;;;3.77;;
18162;SDS011;9206;50.994;4.538;2023-10-08T05:12:33;4.67;;;3.80;;
18162;SDS011;9206;50.994;4.538;2023-10-08T05:15:31;5.40;;;4.20;;
18162;SDS011;9206;50.994;4.538;2023-10-08T05:18:32;5.80;;;3.90;;
18162;SDS011;9206;50.994;4.538;2023-10-08T05:21:44;5.13;;;4.00;;
18162;SDS011;9206;50.994;4.538;2023-10-08T05:28:01;4.17;;;3.83;;
18162;SDS011;9206;50.994;4.538;2023-10-08T05:30:55;6.23;;;4.07;;
18162;SDS011;9206;50.994;4.538;2023-10-08T05:34:03;5.00;;;4.00;;
18162;SDS011;9206;50.994;4.538;2023-10-08T05:37:09;5.53;;;3.80;;
18162;SDS011;9206;50.994;4.538;2023-10-08T05:40:20;5.90;;;3.77;;
18162;SDS011;9206;50.994;4.538;2023-10-08T05:43:30;5.90;;;3.90;;
18162;SDS011;9206;50.994;4.538;2023-10-08T05:46:40;3.80;;;3.50;;
18162;SDS011;9206;50.994;4.538;2023-10-08T05:49:49;4.53;;;4.13;;
18162;SDS011;9206;50.994;4.538;2023-10-08T05:52:55;5.33;;;4.03;;
18162;SDS011;9206;50.994;4.538;2023-10-08T05:56:06;4.03;;;3.73;;
18162;SDS011;9206;50.994;4.538;2023-10-08T06:02:12;6.97;;;4.03;;
18162;SDS011;9206;50.994;4.538;2023-10-08T06:08:11;5.17;;;3.80;;
18162;SDS011;9206;50.994;4.538;2023-10-08T06:11:02;7.43;;;4.40;;
18162;SDS011;9206;50.994;4.538;2023-10-08T06:13:54;4.73;;;4.33;;
18162;SDS011;9206;50.994;4.538;2023-10-08T06:16:49;4.70;;;4.30;;
18162;SDS011;9206;50.994;4.538;2023-10-08T06:20:04;4.03;;;3.73;;
18162;SDS011;9206;50.994;4.538;2023-10-08T06:23:01;8.00;;;4.27;;
18162;SDS011;9206;50.994;4.538;2023-10-08T06:25:53;4.50;;;4.10;;
18162;SDS011;9206;50.994;4.538;2023-10-08T06:29:00;7.83;;;4.17;;
18162;SDS011;9206;50.994;4.538;2023-10-08T06:32:05;4.13;;;3.83;;
18162;SDS011;9206;50.994;4.538;2023-10-08T06:34:54;4.73;;;4.20;;
18162;SDS011;9206;50.994;4.538;2023-10-08T06:40:41;6.67;;;4.40;;
18162;SDS011;9206;50.994;4.538;2023-10-08T06:43:30;7.47;;;4.47;;
18162;SDS011;9206;50.994;4.538;2023-10-08T06:46:26;5.07;;;4.57;;
18162;SDS011;9206;50.994;4.538;2023-10-08T06:49:19;6.07;;;5.50;;
18162;SDS011;9206;50.994;4.538;2023-10-08T06:52:11;7.03;;;5.30;;
18162;SDS011;9206;50.994;4.538;2023-10-08T06:55:01;5.40;;;4.97;;
18162;SDS011;9206;50.994;4.538;2023-10-08T06:58:08;7.47;;;5.47;;
18162;SDS011;9206;50.994;4.538;2023-10-08T07:01:04;7.27;;;4.90;;
18162;SDS011;9206;50.994;4.538;2023-10-08T07:04:09;5.30;;;4.63;;
18162;SDS011;9206;50.994;4.538;2023-10-08T07:07:18;6.15;;;4.90;;
18162;SDS011;9206;50.994;4.538;2023-10-08T07:10:14;5.83;;;5.27;;
18162;SDS011;9206;50.994;4.538;2023-10-08T07:13:11;10.00;;;5.60;;
18162;SDS011;9206;50.994;4.538;2023-10-08T07:16:05;5.85;;;5.30;;
18162;SDS011;9206;50.994;4.538;2023-10-08T07:19:09;5.93;;;5.22;;
18162;SDS011;9206;50.994;4.538;2023-10-08T07:22:04;6.65;;;4.57;;
18162;SDS011;9206;50.994;4.538;2023-10-08T07:25:05;12.38;;;5.07;;
18162;SDS011;9206;50.994;4.538;2023-10-08T07:28:09;6.40;;;4.57;;
18162;SDS011;9206;50.994;4.538;2023-10-08T07:31:12;6.07;;;4.90;;
18162;SDS011;9206;50.994;4.538;2023-10-08T07:34:03;5.10;;;4.20;;
18162;SDS011;9206;50.994;4.538;2023-10-08T07:37:07;5.28;;;4.70;;
18162;SDS011;9206;50.994;4.538;2023-10-08T07:43:39;6.32;;;4.60;;
18162;SDS011;9206;50.994;4.538;2023-10-08T07:46:31;9.75;;;4.80;;
18162;SDS011;9206;50.994;4.538;2023-10-08T07:49:46;7.70;;;4.80;;
18162;SDS011;9206;50.994;4.538;2023-10-08T07:52:35;4.68;;;4.35;;
18162;SDS011;9206;50.994;4.538;2023-10-08T07:55:28;6.82;;;4.90;;
18162;SDS011;9206;50.994;4.538;2023-10-08T07:58:26;7.30;;;4.25;;
18162;SDS011;9206;50.994;4.538;2023-10-08T08:01:18;9.05;;;4.82;;
18162;SDS011;9206;50.994;4.538;2023-10-08T08:04:10;6.38;;;5.03;;
18162;SDS011;9206;50.994;4.538;2023-10-08T08:07:09;6.85;;;4.85;;
18162;SDS011;9206;50.994;4.538;2023-10-08T08:10:01;9.40;;;5.22;;
18162;SDS011;9206;50.994;4.538;2023-10-08T08:12:56;5.82;;;4.28;;
18162;SDS011;9206;50.994;4.538;2023-10-08T08:15:44;6.70;;;4.57;;
18162;SDS011;9206;50.994;4.538;2023-10-08T08:18:42;6.40;;;4.82;;
18162;SDS011;9206;50.994;4.538;2023-10-08T08:21:33;8.27;;;4.82;;
18162;SDS011;9206;50.994;4.538;2023-10-08T08:24:21;8.57;;;4.50;;
18162;SDS011;9206;50.994;4.538;2023-10-08T08:27:21;7.93;;;4.53;;
18162;SDS011;9206;50.994;4.538;2023-10-08T08:30:20;8.60;;;4.80;;
18162;SDS011;9206;50.994;4.538;2023-10-08T08:36:55;6.45;;;4.47;;
18162;SDS011;9206;50.994;4.538;2023-10-08T08:39:48;5.00;;;4.60;;
18162;SDS011;9206;50.994;4.538;2023-10-08T08:42:47;8.73;;;4.72;;
18162;SDS011;9206;50.994;4.538;2023-10-08T08:45:43;5.32;;;4.15;;
18162;SDS011;9206;50.994;4.538;2023-10-08T08:48:35;6.25;;;4.57;;
18162;SDS011;9206;50.994;4.538;2023-10-08T08:51:28;7.50;;;4.72;;
18162;SDS011;9206;50.994;4.538;2023-10-08T08:54:22;6.10;;;4.95;;
18162;SDS011;9206;50.994;4.538;2023-10-08T08:57:10;10.75;;;4.55;;
18162;SDS011;9206;50.994;4.538;2023-10-08T09:00:08;7.35;;;4.53;;
18162;SDS011;9206;50.994;4.538;2023-10-08T09:03:01;6.07;;;3.75;;
18162;SDS011;9206;50.994;4.538;2023-10-08T09:05:54;6.13;;;4.80;;
18162;SDS011;9206;50.994;4.538;2023-10-08T09:08:43;8.07;;;5.10;;
18162;SDS011;9206;50.994;4.538;2023-10-08T09:11:35;5.75;;;4.40;;
18162;SDS011;9206;50.994;4.538;2023-10-08T09:14:28;9.25;;;4.70;;
18162;SDS011;9206;50.994;4.538;2023-10-08T09:17:18;6.35;;;4.90;;
18162;SDS011;9206;50.994;4.538;2023-10-08T09:20:09;6.63;;;4.97;;
18162;SDS011;9206;50.994;4.538;2023-10-08T09:23:07;4.57;;;4.00;;
18162;SDS011;9206;50.994;4.538;2023-10-08T09:25:58;7.50;;;5.20;;
18162;SDS011;9206;50.994;4.538;2023-10-08T09:28:59;8.25;;;4.80;;
18162;SDS011;9206;50.994;4.538;2023-10-08T09:31:53;4.53;;;4.13;;
18162;SDS011;9206;50.994;4.538;2023-10-08T09:37:58;6.20;;;4.28;;
18162;SDS011;9206;50.994;4.538;2023-10-08T09:40:46;8.27;;;4.97;;
18162;SDS011;9206;50.994;4.538;2023-10-08T09:43:35;4.85;;;4.38;;
18162;SDS011;9206;50.994;4.538;2023-10-08T09:46:36;8.77;;;4.95;;
18162;SDS011;9206;50.994;4.538;2023-10-08T09:49:38;5.40;;;4.75;;
18162;SDS011;9206;50.994;4.538;2023-10-08T09:52:29;6.18;;;4.85;;
18162;SDS011;9206;50.994;4.538;2023-10-08T09:55:24;9.13;;;5.45;;
18162;SDS011;9206;50.994;4.538;2023-10-08T09:58:12;9.02;;;4.82;;
18162;SDS011;9206;50.994;4.538;2023-10-08T10:01:04;9.25;;;5.05;;
18162;SDS011;9206;50.994;4.538;2023-10-08T10:06:48;6.97;;;4.85;;
18162;SDS011;9206;50.994;4.538;2023-10-08T10:09:37;5.65;;;4.80;;
18162;SDS011;9206;50.994;4.538;2023-10-08T10:12:26;6.97;;;5.15;;
18162;SDS011;9206;50.994;4.538;2023-10-08T10:15:14;8.68;;;5.47;;
18162;SDS011;9206;50.994;4.538;2023-10-08T10:18:11;8.95;;;5.85;;
18162;SDS011;9206;50.994;4.538;2023-10-08T10:21:23;7.05;;;5.65;;
18162;SDS011;9206;50.994;4.538;2023-10-08T10:24:28;10.20;;;6.35;;
18162;SDS011;9206;50.994;4.538;2023-10-08T10:27:22;7.97;;;5.60;;
18162;SDS011;9206;50.994;4.538;2023-10-08T10:30:10;8.90;;;6.13;;
18162;SDS011;9206;50.994;4.538;2023-10-08T10:33:07;9.00;;;5.72;;
18162;SDS011;9206;50.994;4.538;2023-10-08T10:35:57;8.27;;;5.68;;
18162;SDS011;9206;50.994;4.538;2023-10-08T10:38:52;7.93;;;5.45;;
18162;SDS011;9206;50.994;4.538;2023-10-08T10:41:43;8.38;;;5.57;;
18162;SDS011;9206;50.994;4.538;2023-10-08T10:47:33;9.73;;;5.65;;
18162;SDS011;9206;50.994;4.538;2023-10-08T10:50:30;8.18;;;5.20;;
18162;SDS011;9206;50.994;4.538;2023-10-08T10:53:36;9.00;;;5.95;;
18162;SDS011;9206;50.994;4.538;2023-10-08T10:56:36;6.97;;;5.78;;
18162;SDS011;9206;50.994;4.538;2023-10-08T10:59:29;11.27;;;6.20;;
18162;SDS011;9206;50.994;4.538;2023-10-08T11:02:28;11.68;;;6.35;;
18162;SDS011;9206;50.994;4.538;2023-10-08T11:05:16;8.88;;;5.70;;
18162;SDS011;9206;50.994;4.538;2023-10-08T11:08:05;8.65;;;6.20;;
18162;SDS011;9206;50.994;4.538;2023-10-08T11:10:57;8.57;;;5.75;;
18162;SDS011;9206;50.994;4.538;2023-10-08T11:13:44;6.47;;;5.82;;
18162;SDS011;9206;50.994;4.538;2023-10-08T11:16:40;11.75;;;5.75;;
18162;SDS011;9206;50.994;4.538;2023-10-08T11:19:31;8.05;;;6.43;;
18162;SDS011;9206;50.994;4.538;2023-10-08T11:22:19;11.82;;;6.28;;
18162;SDS011;9206;50.994;4.538;2023-10-08T11:25:20;8.20;;;5.18;;
18162;SDS011;9206;50.994;4.538;2023-10-08T11:28:22;9.60;;;5.72;;
18162;SDS011;9206;50.994;4.538;2023-10-08T11:31:15;7.13;;;5.78;;
18162;SDS011;9206;50.994;4.538;2023-10-08T11:34:05;11.40;;;5.72;;
18162;SDS011;9206;50.994;4.538;2023-10-08T11:36:55;7.78;;;6.15;;
18162;SDS011;9206;50.994;4.538;2023-10-08T11:39:50;8.63;;;5.53;;
18162;SDS011;9206;50.994;4.538;2023-10-08T11:42:39;11.85;;;5.95;;
18162;SDS011;9206;50.994;4.538;2023-10-08T11:45:32;9.68;;;5.68;;
18162;SDS011;9206;50.994;4.538;2023-10-08T11:48:25;7.85;;;4.90;;
18162;SDS011;9206;50.994;4.538;2023-10-08T11:51:15;7.88;;;5.28;;
18162;SDS011;9206;50.994;4.538;2023-10-08T11:54:03;8.88;;;4.95;;
18162;SDS011;9206;50.994;4.538;2023-10-08T12:00:11;9.57;;;5.65;;
18162;SDS011;9206;50.994;4.538;2023-10-08T12:03:08;6.47;;;5.22;;
18162;SDS011;9206;50.994;4.538;2023-10-08T12:05:57;7.40;;;5.15;;
18162;SDS011;9206;50.994;4.538;2023-10-08T12:08:45;9.27;;;5.47;;
18162;SDS011;9206;50.994;4.538;2023-10-08T12:11:38;11.07;;;5.15;;
18162;SDS011;9206;50.994;4.538;2023-10-08T12:17:16;8.45;;;5.68;;
18162;SDS011;9206;50.994;4.538;2023-10-08T12:20:07;10.98;;;5.90;;
18162;SDS011;9206;50.994;4.538;2023-10-08T12:23:09;9.55;;;5.35;;
18162;SDS011;9206;50.994;4.538;2023-10-08T12:26:04;8.60;;;5.88;;
18162;SDS011;9206;50.994;4.538;2023-10-08T12:28:55;11.95;;;6.00;;
18162;SDS011;9206;50.994;4.538;2023-10-08T12:31:43;10.77;;;6.13;;
18162;SDS011;9206;50.994;4.538;2023-10-08T12:34:33;8.20;;;5.45;;
18162;SDS011;9206;50.994;4.538;2023-10-08T12:37:24;16.40;;;6.55;;
18162;SDS011;9206;50.994;4.538;2023-10-08T12:40:18;11.00;;;5.80;;
18162;SDS011;9206;50.994;4.538;2023-10-08T12:43:15;15.00;;;5.88;;
18162;SDS011;9206;50.994;4.538;2023-10-08T12:46:04;7.57;;;5.65;;
18162;SDS011;9206;50.994;4.538;2023-10-08T12:48:57;8.85;;;6.20;;
18162;SDS011;9206;50.994;4.538;2023-10-08T12:51:48;11.73;;;5.90;;
18162;SDS011;9206;50.994;4.538;2023-10-08T12:54:45;6.57;;;5.95;;
18162;SDS011;9206;50.994;4.538;2023-10-08T13:00:26;8.80;;;5.72;;
18162;SDS011;9206;50.994;4.538;2023-10-08T13:06:13;8.88;;;6.05;;
18162;SDS011;9206;50.994;4.538;2023-10-08T13:09:13;8.10;;;5.25;;
18162;SDS011;9206;50.994;4.538;2023-10-08T13:12:07;6.05;;;5.45;;
18162;SDS011;9206;50.994;4.538;2023-10-08T13:14:56;9.15;;;5.35;;
18162;SDS011;9206;50.994;4.538;2023-10-08T13:17:47;6.18;;;5.40;;
18162;SDS011;9206;50.994;4.538;2023-10-08T13:20:40;9.80;;;6.10;;
18162;SDS011;9206;50.994;4.538;2023-10-08T13:23:32;8.07;;;5.55;;
18162;SDS011;9206;50.994;4.538;2023-10-08T13:26:22;6.43;;;4.75;;
18162;SDS011;9206;50.994;4.538;2023-10-08T13:29:20;8.48;;;5.60;;
18162;SDS011;9206;50.994;4.538;2023-10-08T13:32:09;11.65;;;5.38;;
18162;SDS011;9206;50.994;4.538;2023-10-08T13:35:03;7.07;;;5.80;;
18162;SDS011;9206;50.994;4.538;2023-10-08T13:37:55;6.28;;;5.50;;
18162;SDS011;9206;50.994;4.538;2023-10-08T13:40:45;6.95;;;5.03;;
18162;SDS011;9206;50.994;4.538;2023-10-08T13:43:48;7.32;;;5.28;;
18162;SDS011;9206;50.994;4.538;2023-10-08T13:46:52;8.95;;;5.68;;
18162;SDS011;9206;50.994;4.538;2023-10-08T13:49:45;9.13;;;6.20;;
18162;SDS011;9206;50.994;4.538;2023-10-08T13:52:41;8.85;;;5.35;;
18162;SDS011;9206;50.994;4.538;2023-10-08T13:55:35;10.68;;;6.00;;
18162;SDS011;9206;50.994;4.538;2023-10-08T13:58:30;8.27;;;5.32;;
18162;SDS011;9206;50.994;4.538;2023-10-08T14:01:20;10.93;;;5.45;;
18162;SDS011;9206;50.994;4.538;2023-10-08T14:04:13;9.48;;;5.57;;
18162;SDS011;9206;50.994;4.538;2023-10-08T14:07:05;6.50;;;5.20;;
18162;SDS011;9206;50.994;4.538;2023-10-08T14:09:52;10.65;;;5.47;;
18162;SDS011;9206;50.994;4.538;2023-10-08T14:12:42;8.77;;;5.20;;
18162;SDS011;9206;50.994;4.538;2023-10-08T14:18:31;9.30;;;5.47;;
18162;SDS011;9206;50.994;4.538;2023-10-08T14:21:27;10.93;;;4.88;;
18162;SDS011;9206;50.994;4.538;2023-10-08T14:24:18;6.10;;;4.97;;
18162;SDS011;9206;50.994;4.538;2023-10-08T14:27:06;9.10;;;5.47;;
18162;SDS011;9206;50.994;4.538;2023-10-08T14:32:51;8.38;;;5.07;;
18162;SDS011;9206;50.994;4.538;2023-10-08T14:35:43;7.55;;;5.10;;
18162;SDS011;9206;50.994;4.538;2023-10-08T14:38:51;6.43;;;5.10;;
18162;SDS011;9206;50.994;4.538;2023-10-08T14:42:00;13.50;;;5.43;;
18162;SDS011;9206;50.994;4.538;2023-10-08T14:48:10;5.85;;;4.68;;
18162;SDS011;9206;50.994;4.538;2023-10-08T14:51:05;12.43;;;4.93;;
18162;SDS011;9206;50.994;4.538;2023-10-08T14:54:00;6.45;;;4.88;;
18162;SDS011;9206;50.994;4.538;2023-10-08T14:56:49;8.00;;;5.95;;
18162;SDS011;9206;50.994;4.538;2023-10-08T14:59:42;8.23;;;4.85;;
18162;SDS011;9206;50.994;4.538;2023-10-08T15:05:23;8.57;;;5.40;;
18162;SDS011;9206;50.994;4.538;2023-10-08T15:08:12;7.13;;;5.00;;
18162;SDS011;9206;50.994;4.538;2023-10-08T15:11:07;7.63;;;4.72;;
18162;SDS011;9206;50.994;4.538;2023-10-08T15:14:02;4.93;;;4.45;;
18162;SDS011;9206;50.994;4.538;2023-10-08T15:16:58;8.52;;;5.78;;
18162;SDS011;9206;50.994;4.538;2023-10-08T15:19:46;6.63;;;5.22;;
18162;SDS011;9206;50.994;4.538;2023-10-08T15:22:40;7.88;;;4.72;;
18162;SDS011;9206;50.994;4.538;2023-10-08T15:28:42;5.40;;;4.90;;
18162;SDS011;9206;50.994;4.538;2023-10-08T15:31:32;9.07;;;4.97;;
18162;SDS011;9206;50.994;4.538;2023-10-08T15:34:21;9.45;;;4.88;;
18162;SDS011;9206;50.994;4.538;2023-10-08T15:37:11;5.70;;;4.97;;
18162;SDS011;9206;50.994;4.538;2023-10-08T15:40:06;7.05;;;5.00;;
18162;SDS011;9206;50.994;4.538;2023-10-08T15:45:54;9.00;;;5.68;;
18162;SDS011;9206;50.994;4.538;2023-10-08T15:48:41;7.18;;;5.53;;
18162;SDS011;9206;50.994;4.538;2023-10-08T15:51:29;6.70;;;4.40;;
18162;SDS011;9206;50.994;4.538;2023-10-08T15:54:19;6.03;;;5.43;;
18162;SDS011;9206;50.994;4.538;2023-10-08T15:57:07;5.40;;;4.65;;
18162;SDS011;9206;50.994;4.538;2023-10-08T16:02:52;6.82;;;5.88;;
18162;SDS011;9206;50.994;4.538;2023-10-08T16:05:47;6.55;;;5.05;;
18162;SDS011;9206;50.994;4.538;2023-10-08T16:08:36;7.82;;;5.32;;
18162;SDS011;9206;50.994;4.538;2023-10-08T16:11:24;7.65;;;5.22;;
18162;SDS011;9206;50.994;4.538;2023-10-08T16:14:16;10.52;;;4.97;;
18162;SDS011;9206;50.994;4.538;2023-10-08T16:17:09;20.17;;;16.23;;
18162;SDS011;9206;50.994;4.538;2023-10-08T16:22:59;5.13;;;4.68;;
18162;SDS011;9206;50.994;4.538;2023-10-08T16:25:48;7.03;;;4.82;;
18162;SDS011;9206;50.994;4.538;2023-10-08T16:28:39;7.88;;;4.65;;
18162;SDS011;9206;50.994;4.538;2023-10-08T16:31:26;9.20;;;5.00;;
18162;SDS011;9206;50.994;4.538;2023-10-08T16:34:14;6.63;;;5.22;;
18162;SDS011;9206;50.994;4.538;2023-10-08T16:37:04;4.90;;;4.50;;
18162;SDS011;9206;50.994;4.538;2023-10-08T16:39:55;5.35;;;4.85;;
18162;SDS011;9206;50.994;4.538;2023-10-08T16:42:44;5.63;;;5.05;;
18162;SDS011;9206;50.994;4.538;2023-10-08T16:45:38;8.25;;;4.82;;
18162;SDS011;9206;50.994;4.538;2023-10-08T16:54:26;10.50;;;5.75;;
18162;SDS011;9206;50.994;4.538;2023-10-08T16:57:15;8.38;;;5.60;;
18162;SDS011;9206;50.994;4.538;2023-10-08T17:02:59;6.45;;;5.60;;
18162;SDS011;9206;50.994;4.538;2023-10-08T17:05:47;8.38;;;5.97;;
18162;SDS011;9206;50.994;4.538;2023-10-08T17:08:35;10.38;;;5.32;;
18162;SDS011;9206;50.994;4.538;2023-10-08T17:11:25;5.80;;;5.30;;
18162;SDS011;9206;50.994;4.538;2023-10-08T17:14:14;9.52;;;5.75;;
18162;SDS011;9206;50.994;4.538;2023-10-08T17:17:03;9.40;;;5.57;;
18162;SDS011;9206;50.994;4.538;2023-10-08T17:19:50;6.07;;;5.40;;
18162;SDS011;9206;50.994;4.538;2023-10-08T17:22:42;9.07;;;5.03;;
18162;SDS011;9206;50.994;4.538;2023-10-08T17:25:36;6.00;;;5.13;;
18162;SDS011;9206;50.994;4.538;2023-10-08T17:31:35;9.13;;;5.38;;
18162;SDS011;9206;50.994;4.538;2023-10-08T17:34:24;7.15;;;6.50;;
18162;SDS011;9206;50.994;4.538;2023-10-08T17:37:14;9.95;;;8.63;;
18162;SDS011;9206;50.994;4.538;2023-10-08T17:40:03;8.55;;;5.90;;
18162;SDS011;9206;50.994;4.538;2023-10-08T17:42:59;9.60;;;6.90;;
18162;SDS011;9206;50.994;4.538;2023-10-08T17:45:54;7.38;;;5.07;;
18162;SDS011;9206;50.994;4.538;2023-10-08T17:48:43;8.50;;;5.85;;
18162;SDS011;9206;50.994;4.538;2023-10-08T17:51:33;11.60;;;5.95;;
18162;SDS011;9206;50.994;4.538;2023-10-08T17:54:25;7.90;;;5.68;;
18162;SDS011;9206;50.994;4.538;2023-10-08T17:57:22;7.45;;;5.60;;
18162;SDS011;9206;50.994;4.538;2023-10-08T18:00:15;6.20;;;5.55;;
18162;SDS011;9206;50.994;4.538;2023-10-08T18:03:08;6.35;;;5.75;;
18162;SDS011;9206;50.994;4.538;2023-10-08T18:06:04;7.18;;;5.47;;
18162;SDS011;9206;50.994;4.538;2023-10-08T18:09:00;6.18;;;5.60;;
18162;SDS011;9206;50.994;4.538;2023-10-08T18:11:47;6.93;;;6.20;;
18162;SDS011;9206;50.994;4.538;2023-10-08T18:14:35;9.10;;;6.82;;
18162;SDS011;9206;50.994;4.538;2023-10-08T18:17:23;12.15;;;6.90;;
18162;SDS011;9206;50.994;4.538;2023-10-08T18:20:13;8.10;;;6.57;;
18162;SDS011;9206;50.994;4.538;2023-10-08T18:23:06;7.90;;;6.50;;
18162;SDS011;9206;50.994;4.538;2023-10-08T18:25:59;10.98;;;6.75;;
18162;SDS011;9206;50.994;4.538;2023-10-08T18:28:47;7.18;;;6.47;;
18162;SDS011;9206;50.994;4.538;2023-10-08T18:31:38;7.32;;;6.57;;
18162;SDS011;9206;50.994;4.538;2023-10-08T18:34:26;9.00;;;6.53;;
18162;SDS011;9206;50.994;4.538;2023-10-08T18:37:18;8.95;;;6.45;;
18162;SDS011;9206;50.994;4.538;2023-10-08T18:40:07;8.43;;;5.93;;
18162;SDS011;9206;50.994;4.538;2023-10-08T18:43:00;9.20;;;6.15;;
18162;SDS011;9206;50.994;4.538;2023-10-08T18:45:56;6.70;;;5.85;;
18162;SDS011;9206;50.994;4.538;2023-10-08T18:48:50;8.80;;;6.90;;
18162;SDS011;9206;50.994;4.538;2023-10-08T18:51:37;8.70;;;6.80;;
18162;SDS011;9206;50.994;4.538;2023-10-08T18:54:30;8.35;;;6.57;;
18162;SDS011;9206;50.994;4.538;2023-10-08T18:57:22;10.48;;;8.82;;
18162;SDS011;9206;50.994;4.538;2023-10-08T19:00:17;22.45;;;15.13;;
18162;SDS011;9206;50.994;4.538;2023-10-08T19:03:07;22.05;;;14.38;;
18162;SDS011;9206;50.994;4.538;2023-10-08T19:06:02;25.02;;;16.17;;
18162;SDS011;9206;50.994;4.538;2023-10-08T19:08:57;28.20;;;15.68;;
18162;SDS011;9206;50.994;4.538;2023-10-08T19:14:43;14.07;;;12.15;;
18162;SDS011;9206;50.994;4.538;2023-10-08T19:17:37;19.52;;;9.82;;
18162;SDS011;9206;50.994;4.538;2023-10-08T19:23:18;12.80;;;9.55;;
18162;SDS011;9206;50.994;4.538;2023-10-08T19:26:13;13.20;;;10.23;;
18162;SDS011;9206;50.994;4.538;2023-10-08T19:29:12;13.82;;;10.65;;
18162;SDS011;9206;50.994;4.538;2023-10-08T19:32:00;13.88;;;10.45;;
18162;SDS011;9206;50.994;4.538;2023-10-08T19:34:54;15.02;;;10.27;;
18162;SDS011;9206;50.994;4.538;2023-10-08T19:37:44;11.77;;;9.02;;